Time;durP1;ratioP1;P1;durP2;ratioP2;P2;SDS_P1;SDS_P2;PMS_P1;PMS_P2;Temp;Humidity;BMP_temperature;BMP_pressure;BME280_temperature;BME280_humidity;BME280_pressure;Samples;Min_cycle;Max_cycle;Signal;HPM_P1;HPM_P2
2023/01/23 00:00:26;;;;;;;;;50.75;39.75;;;;;2.59;67.97;102647.81;5032392;28;45378;-66
2023/01/23 00:02:51;;;;;;;;;53.75;37.50;;;;;2.63;67.89;102643.03;5003905;28;45460;-67
2023/01/23 00:05:17;;;;;;;;;56.00;44.25;;;;;2.65;67.41;102635.63;5032913;28;45401;-68
2023/01/23 00:07:43;;;;;;;;;50.25;42.25;;;;;2.68;68.16;102643.56;5030215;28;45581;-64
2023/01/23 00:10:09;;;;;;;;;52.50;42.25;;;;;2.53;68.22;102638.28;5030738;28;45433;-67
2023/01/23 00:12:35;;;;;;;;;45.20;39.20;;;;;2.60;67.99;102641.41;5030986;28;45516;-67
2023/01/23 00:15:00;;;;;;;;;43.75;31.75;;;;;2.73;68.01;102646.81;5047897;28;45594;-66
2023/01/23 00:17:26;;;;;;;;;37.50;33.00;;;;;2.68;67.71;102646.28;5032258;28;45552;-64
2023/01/23 00:19:53;;;;;;;;;49.50;39.50;;;;;2.68;67.71;102644.41;5031224;28;46058;-67
2023/01/23 00:22:18;;;;;;;;;51.00;39.00;;;;;2.57;67.75;102626.22;5032207;28;45566;-66
2023/01/23 00:24:44;;;;;;;;;42.50;38.25;;;;;2.61;67.93;102642.28;5032495;28;45374;-65
2023/01/23 00:27:09;;;;;;;;;48.00;41.25;;;;;2.63;67.85;102649.31;5030412;28;48507;-66
2023/01/23 00:29:35;;;;;;;;;45.25;38.75;;;;;2.64;68.20;102651.06;5013967;28;45696;-66
2023/01/23 00:32:01;;;;;;;;;50.75;41.25;;;;;2.68;67.53;102654.41;5046222;28;45587;-66
2023/01/23 00:34:26;;;;;;;;;42.00;38.00;;;;;2.72;67.67;102639.63;5032104;28;45427;-67
2023/01/23 00:36:52;;;;;;;;;48.75;38.75;;;;;2.76;67.90;102652.00;5031877;28;45656;-67
2023/01/23 00:39:19;;;;;;;;;42.50;37.25;;;;;2.77;67.43;102653.72;5031641;28;45423;-66
2023/01/23 00:41:45;;;;;;;;;43.40;39.00;;;;;2.71;67.75;102657.75;5031577;28;45470;-67
2023/01/23 00:44:11;;;;;;;;;35.50;28.00;;;;;2.74;67.68;102656.66;5045922;28;45824;-68
2023/01/23 00:46:36;;;;;;;;;51.00;40.00;;;;;2.69;67.91;102654.31;4983534;28;45899;-68
2023/01/23 00:49:02;;;;;;;;;44.00;37.50;;;;;2.38;67.05;102582.47;5012219;28;45785;-64
2023/01/23 00:51:27;;;;;;;;;40.25;37.75;;;;;2.67;67.63;102648.09;5011597;28;45450;-69
2023/01/23 00:53:53;;;;;;;;;43.75;39.25;;;;;2.71;67.80;102659.59;5011309;28;45699;-64
2023/01/23 00:56:19;;;;;;;;;45.00;37.50;;;;;2.38;67.77;102587.88;5013996;28;46550;-66
2023/01/23 00:58:44;;;;;;;;;60.50;42.75;;;;;2.81;67.56;102654.34;5026897;28;45452;-64
2023/01/23 01:01:10;;;;;;;;;60.25;40.25;;;;;2.73;67.27;102649.53;5011700;28;45775;-67
2023/01/23 01:03:35;;;;;;;;;49.00;35.00;;;;;2.71;67.61;102649.63;4990448;28;45391;-66
2023/01/23 01:06:01;;;;;;;;;59.25;43.50;;;;;2.75;67.68;102649.38;5031905;28;46675;-64
2023/01/23 01:08:26;;;;;;;;;57.50;42.50;;;;;2.80;67.22;102653.50;5014388;28;45449;-65
2023/01/23 01:10:52;;;;;;;;;43.00;34.25;;;;;2.52;67.16;102614.84;4994590;28;45510;-65
2023/01/23 01:13:20;;;;;;;;;37.00;30.75;;;;;2.64;67.57;102648.34;5011407;28;45474;-65
2023/01/23 01:15:49;;;;;;;;;51.75;40.25;;;;;2.72;67.83;102650.47;4995104;28;45683;-61
2023/01/23 01:18:15;;;;;;;;;47.00;37.00;;;;;2.73;67.63;102648.63;5010575;28;45516;-64
2023/01/23 01:20:41;;;;;;;;;48.50;40.00;;;;;2.79;67.78;102643.66;5011180;28;45319;-64
2023/01/23 01:23:06;;;;;;;;;54.25;38.75;;;;;2.78;67.43;102650.03;4996392;28;45364;-64
2023/01/23 01:25:32;;;;;;;;;43.75;39.75;;;;;2.68;67.62;102635.44;4995468;28;46002;-64
2023/01/23 01:27:57;;;;;;;;;47.50;36.00;;;;;2.53;67.57;102607.59;4994405;28;45599;-64
2023/01/23 01:30:25;;;;;;;;;57.25;44.50;;;;;2.66;67.72;102631.97;5011381;28;45310;-64
2023/01/23 01:32:51;;;;;;;;;41.00;36.25;;;;;2.61;68.24;102653.13;4995738;28;45405;-64
2023/01/23 01:35:17;;;;;;;;;49.75;42.25;;;;;2.57;68.19;102647.06;4995978;28;46523;-65
2023/01/23 01:37:43;;;;;;;;;49.50;39.25;;;;;2.49;68.43;102627.75;5021113;28;45335;-64
2023/01/23 01:40:13;;;;;;;;;49.75;40.00;;;;;2.56;68.05;102645.34;5014477;28;45291;-64
2023/01/23 01:42:40;;;;;;;;;48.50;40.00;;;;;2.54;68.11;102645.44;5030850;28;45646;-65
2023/01/23 01:45:26;;;;;;;;;47.50;40.50;;;;;2.57;68.27;102636.22;5015524;28;46225;-64
2023/01/23 01:47:52;;;;;;;;;51.60;40.20;;;;;2.55;68.11;102628.19;5022589;28;45578;-64
2023/01/23 01:50:17;;;;;;;;;53.75;42.75;;;;;2.49;68.47;102633.19;5045190;28;45440;-63
2023/01/23 01:52:43;;;;;;;;;46.00;37.00;;;;;2.51;68.47;102621.25;5002737;28;45497;-64
2023/01/23 01:55:09;;;;;;;;;50.50;41.25;;;;;2.57;68.25;102625.38;5053236;28;46367;-64
2023/01/23 01:57:37;;;;;;;;;49.20;39.00;;;;;2.56;68.31;102624.50;5037004;28;45682;-64
2023/01/23 02:00:07;;;;;;;;;52.25;43.25;;;;;2.51;68.26;102621.25;5020842;28;45264;-65
2023/01/23 02:02:57;;;;;;;;;47.50;39.25;;;;;2.25;68.66;102593.34;5037356;28;45287;-65
2023/01/23 02:05:26;;;;;;;;;43.50;38.25;;;;;2.38;68.80;102624.00;5037704;28;45600;-65
2023/01/23 02:08:03;;;;;;;;;46.40;38.80;;;;;2.44;69.00;102619.97;5055126;28;46009;-65
2023/01/23 02:10:31;;;;;;;;;53.75;43.75;;;;;2.55;68.72;102620.06;5020953;28;45745;-65
2023/01/23 02:13:19;;;;;;;;;50.75;36.75;;;;;2.61;68.36;102624.16;5054980;28;45570;-64
2023/01/23 02:15:45;;;;;;;;;45.00;40.20;;;;;2.64;68.25;102620.34;5020303;28;47742;-64
2023/01/23 02:18:11;;;;;;;;;50.75;41.25;;;;;2.57;68.47;102625.38;5019883;28;45452;-63
2023/01/23 02:20:36;;;;;;;;;50.50;38.75;;;;;2.45;68.50;102621.69;5037016;28;45708;-65
2023/01/23 02:23:13;;;;;;;;;54.00;43.25;;;;;2.50;68.46;102619.53;5054948;28;45880;-66
2023/01/23 02:25:50;;;;;;;;;51.50;42.25;;;;;2.47;68.29;102621.59;5054667;28;46750;-65
2023/01/23 02:28:15;;;;;;;;;51.40;40.20;;;;;2.23;69.25;102598.03;5054389;28;45265;-62
2023/01/23 02:30:41;;;;;;;;;48.25;40.00;;;;;2.29;69.36;102611.09;5037168;28;45345;-64
2023/01/23 02:33:20;;;;;;;;;45.75;39.75;;;;;2.12;69.17;102587.94;5053699;28;45380;-64
2023/01/23 02:35:46;;;;;;;;;44.75;36.50;;;;;2.30;69.38;102613.72;5037824;28;46871;-64
2023/01/23 02:38:12;;;;;;;;;50.25;44.25;;;;;2.40;69.09;102619.31;5054266;28;45453;-64
2023/01/23 02:40:39;;;;;;;;;35.25;29.00;;;;;2.40;69.40;102619.31;5036491;28;45413;-63
2023/01/23 02:43:06;;;;;;;;;45.25;38.50;;;;;2.19;69.89;102577.53;5054576;28;45447;-63
2023/01/23 02:45:32;;;;;;;;;53.00;38.75;;;;;2.46;69.18;102617.16;5036167;28;46639;-63
2023/01/23 02:47:58;;;;;;;;;50.00;34.25;;;;;2.51;69.04;102625.81;5053326;28;45256;-62
2023/01/23 02:50:23;;;;;;;;;50.00;40.00;;;;;2.61;68.74;102628.72;5054526;28;45444;-63
2023/01/23 02:52:50;;;;;;;;;52.75;41.75;;;;;2.60;68.66;102638.69;5055072;28;45244;-63
2023/01/23 02:55:18;;;;;;;;;52.25;41.75;;;;;2.34;68.67;102621.63;5036586;28;46208;-65
2023/01/23 02:57:44;;;;;;;;;50.00;42.20;;;;;2.46;69.33;102644.25;5036398;28;46040;-63
2023/01/23 03:00:19;;;;;;;;;53.00;40.00;;;;;2.47;69.13;102637.84;5055035;28;45318;-63
2023/01/23 03:02:48;;;;;;;;;48.75;41.25;;;;;2.51;68.86;102637.50;5054366;28;45316;-64
2023/01/23 03:05:13;;;;;;;;;60.50;44.50;;;;;2.57;69.21;102637.06;5025662;28;46293;-63
2023/01/23 03:07:39;;;;;;;;;46.00;37.00;;;;;2.57;68.79;102641.66;5057612;28;45532;-63
2023/01/23 03:10:06;;;;;;;;;57.25;43.75;;;;;2.24;69.37;102591.63;5056480;28;45392;-64
2023/01/23 03:12:32;;;;;;;;;39.00;36.50;;;;;2.45;69.25;102640.66;5040194;28;45362;-64
2023/01/23 03:14:57;;;;;;;;;48.25;37.75;;;;;2.43;69.47;102631.78;5039217;28;47389;-64
2023/01/23 03:17:23;;;;;;;;;45.25;40.25;;;;;2.09;69.30;102586.31;5039720;28;45351;-64
2023/01/23 03:19:48;;;;;;;;;48.00;39.75;;;;;2.28;70.08;102640.06;5039540;28;45443;-64
2023/01/23 03:22:14;;;;;;;;;49.00;39.50;;;;;2.30;70.26;102634.53;5058075;28;45352;-64
2023/01/23 03:24:39;;;;;;;;;52.00;39.25;;;;;2.38;70.03;102633.97;5039258;28;46329;-64
2023/01/23 03:27:05;;;;;;;;;40.25;33.00;;;;;2.36;69.67;102633.22;5039642;28;45769;-64
2023/01/23 03:32:15;;;;;;;;;49.50;40.50;;;;;2.26;69.47;102603.22;5042455;28;45393;-64
2023/01/23 03:34:41;;;;;;;;;56.00;39.50;;;;;2.44;69.27;102637.13;5057020;28;45522;-65
2023/01/23 03:37:06;;;;;;;;;55.75;44.75;;;;;2.38;69.79;102636.66;5039510;28;45386;-65
2023/01/23 03:42:16;;;;;;;;;47.00;41.25;;;;;2.48;69.64;102629.63;5037589;28;45347;-64
2023/01/23 03:44:42;;;;;;;;;47.00;40.50;;;;;2.56;69.46;102640.75;5036963;28;46152;-65
2023/01/23 03:47:08;;;;;;;;;52.75;41.75;;;;;2.38;69.21;102594.19;5019272;28;45338;-64
2023/01/23 03:49:33;;;;;;;;;53.50;41.75;;;;;2.54;69.33;102622.88;5019376;28;45414;-65
2023/01/23 03:51:59;;;;;;;;;51.25;41.00;;;;;2.52;69.36;102632.97;5019107;28;45568;-63
2023/01/23 03:54:24;;;;;;;;;53.00;40.75;;;;;2.43;69.81;102632.66;5035224;28;45432;-64
2023/01/23 03:56:50;;;;;;;;;54.75;40.50;;;;;2.52;69.76;102633.81;5036840;28;45981;-64
2023/01/23 03:59:15;;;;;;;;;48.50;40.25;;;;;2.57;69.20;102637.06;5035654;28;45385;-64
2023/01/23 04:01:41;;;;;;;;;45.25;37.50;;;;;2.53;70.02;102627.44;5036940;28;45539;-64
2023/01/23 04:04:06;;;;;;;;;46.00;35.00;;;;;2.61;69.14;102624.16;5018517;28;45665;-64
2023/01/23 04:06:32;;;;;;;;;45.75;42.00;;;;;2.62;69.32;102628.59;5036997;28;45467;-64
2023/01/23 04:08:58;;;;;;;;;57.00;44.50;;;;;2.63;69.11;102629.47;5018330;28;45452;-64
2023/01/23 04:11:26;;;;;;;;;52.00;40.75;;;;;2.47;68.87;102603.50;5035506;28;45659;-64
2023/01/23 04:13:52;;;;;;;;;46.75;36.00;;;;;2.48;69.65;102624.19;5018316;28;47009;-64
2023/01/23 04:16:18;;;;;;;;;54.40;39.00;;;;;2.49;69.55;102634.06;5018416;28;45352;-64
2023/01/23 04:18:43;;;;;;;;;26.00;19.00;;;;;2.49;69.42;102633.19;5034641;28;45510;-64
2023/01/23 04:21:09;;;;;;;;;44.00;36.25;;;;;2.43;69.63;102626.38;5018434;28;45369;-63
2023/01/23 04:23:35;;;;;;;;;47.00;38.50;;;;;2.46;69.58;102628.00;5018461;28;45584;-65
2023/01/23 04:26:00;;;;;;;;;49.75;36.00;;;;;2.54;69.40;102637.31;5018018;28;45910;-64
2023/01/23 04:28:26;;;;;;;;;51.75;43.75;;;;;2.57;69.32;102634.34;5018647;28;45342;-64
2023/01/23 04:30:51;;;;;;;;;45.00;38.50;;;;;2.62;69.17;102638.59;5036972;28;45772;-63
2023/01/23 04:33:18;;;;;;;;;44.75;33.50;;;;;2.65;69.12;102638.34;5018147;28;45418;-63
2023/01/23 04:35:55;;;;;;;;;39.20;32.80;;;;;2.65;69.00;102636.50;5036198;28;45256;-63
2023/01/23 04:38:22;;;;;;;;;47.00;40.25;;;;;2.58;69.55;102646.09;5027047;28;45472;-64
2023/01/23 04:40:47;;;;;;;;;44.25;32.25;;;;;2.64;69.64;102645.63;5021785;28;45351;-63
2023/01/23 04:43:13;;;;;;;;;52.25;41.00;;;;;2.62;69.39;102647.56;5037888;28;45388;-63
2023/01/23 04:45:38;;;;;;;;;48.25;40.25;;;;;2.62;69.42;102644.00;5055945;28;45466;-63
2023/01/23 04:48:04;;;;;;;;;47.75;40.25;;;;;2.61;69.38;102635.00;5038009;28;45503;-65
2023/01/23 04:50:31;;;;;;;;;51.25;37.50;;;;;2.58;69.31;102632.53;5021715;28;45660;-62
2023/01/23 04:52:57;;;;;;;;;43.25;33.50;;;;;2.54;69.39;102641.84;4997622;28;47008;-62
2023/01/23 04:55:23;;;;;;;;;54.60;40.00;;;;;2.59;69.42;102645.09;5055642;28;45375;-62
2023/01/23 04:57:49;;;;;;;;;42.00;35.80;;;;;2.63;69.62;102646.63;5056662;28;45371;-64
2023/01/23 05:00:15;;;;;;;;;50.50;38.75;;;;;2.64;69.52;102637.50;5054868;28;45382;-64
2023/01/23 05:02:41;;;;;;;;;48.00;39.50;;;;;2.46;69.07;102606.31;5054764;28;47474;-63
2023/01/23 05:05:07;;;;;;;;;50.00;38.00;;;;;2.75;69.06;102650.25;5055953;28;45260;-64
2023/01/23 05:07:32;;;;;;;;;42.25;36.75;;;;;2.71;68.60;102646.91;5056448;28;45263;-64
2023/01/23 05:09:58;;;;;;;;;51.75;41.75;;;;;2.71;68.99;102649.63;5056399;28;45428;-64
2023/01/23 05:12:23;;;;;;;;;39.75;34.00;;;;;2.42;69.18;102614.66;5054306;28;46807;-64
2023/01/23 05:14:49;;;;;;;;;51.50;39.25;;;;;2.62;69.51;102649.44;5055841;28;45544;-63
2023/01/23 05:17:14;;;;;;;;;51.25;38.75;;;;;2.61;69.48;102653.13;5055965;28;45896;-63
2023/01/23 05:19:40;;;;;;;;;44.25;33.25;;;;;2.70;69.34;102657.88;5056026;28;45438;-63
2023/01/23 05:22:05;;;;;;;;;54.75;43.25;;;;;2.64;69.39;102639.31;5056179;28;45656;-63
2023/01/23 05:24:31;;;;;;;;;51.25;41.25;;;;;2.79;68.93;102664.47;5055472;28;45449;-63
2023/01/23 05:26:56;;;;;;;;;52.00;40.25;;;;;2.63;69.14;102630.34;5037773;28;45456;-63
2023/01/23 05:29:22;;;;;;;;;44.75;37.50;;;;;2.79;68.98;102665.34;5053163;28;45474;-63
2023/01/23 05:31:47;;;;;;;;;37.25;32.75;;;;;2.82;69.49;102666.94;5037561;28;48421;-63
2023/01/23 05:34:13;;;;;;;;;55.00;42.25;;;;;2.76;69.23;102670.09;5037494;28;45466;-64
2023/01/23 05:36:38;;;;;;;;;52.50;41.00;;;;;2.68;69.74;102667.97;5055747;28;45561;-64
2023/01/23 05:39:04;;;;;;;;;54.00;37.75;;;;;2.56;69.72;102656.19;5055660;28;45657;-62
2023/01/23 05:41:29;;;;;;;;;53.25;39.50;;;;;2.65;69.51;102677.19;5020595;28;46585;-63
2023/01/23 05:43:55;;;;;;;;;48.00;40.50;;;;;2.64;69.47;102680.88;5055471;28;45255;-62
2023/01/23 05:46:20;;;;;;;;;47.75;40.00;;;;;2.68;69.72;102679.66;5055416;28;45464;-63
2023/01/23 05:48:50;;;;;;;;;43.50;35.25;;;;;2.67;69.55;102677.09;5037799;28;45770;-63
2023/01/23 05:51:16;;;;;;;;;45.80;34.20;;;;;2.65;69.66;102688.03;5055180;28;45604;-63
2023/01/23 05:53:41;;;;;;;;;44.80;27.80;;;;;2.60;70.03;102681.22;5053358;28;45555;-60
2023/01/23 05:56:07;;;;;;;;;46.00;36.75;;;;;2.62;69.69;102682.81;5044437;28;45853;-63
2023/01/23 05:58:33;;;;;;;;;42.25;36.00;;;;;2.68;69.59;102681.53;5051659;28;45431;-65
2023/01/23 06:00:58;;;;;;;;;50.00;40.75;;;;;2.71;69.39;102679.44;5054050;28;45604;-64
2023/01/23 06:03:24;;;;;;;;;47.50;37.50;;;;;2.71;69.43;102687.59;5053516;28;45325;-64
2023/01/23 06:05:49;;;;;;;;;29.50;22.25;;;;;2.75;69.30;102698.19;5053873;28;45322;-63
2023/01/23 06:08:15;;;;;;;;;54.00;40.25;;;;;2.57;68.98;102660.63;5037661;28;45589;-63
2023/01/23 06:10:40;;;;;;;;;47.50;38.00;;;;;2.73;69.25;102689.31;5036594;28;46374;-63
2023/01/23 06:13:06;;;;;;;;;44.50;33.00;;;;;2.74;69.55;102700.06;5055464;28;45367;-64
2023/01/23 06:15:31;;;;;;;;;50.00;36.75;;;;;2.67;69.42;102691.50;5055009;28;45291;-63
2023/01/23 06:17:57;;;;;;;;;44.75;40.00;;;;;2.74;69.13;102702.78;5036922;28;45403;-63
2023/01/23 06:20:22;;;;;;;;;43.50;31.25;;;;;2.78;68.82;102700.69;5036752;28;47008;-63
2023/01/23 06:22:48;;;;;;;;;40.00;33.25;;;;;2.74;68.74;102700.06;5054924;28;45391;-64
2023/01/23 06:25:14;;;;;;;;;47.50;38.00;;;;;2.82;68.57;102710.31;5054953;28;45498;-65
2023/01/23 06:27:39;;;;;;;;;39.75;34.00;;;;;2.22;68.82;102610.69;5054943;28;45485;-64
2023/01/23 06:30:05;;;;;;;;;39.75;34.25;;;;;2.79;68.59;102716.88;5053329;28;48052;-64
2023/01/23 06:32:31;;;;;;;;;44.80;30.40;;;;;2.71;68.38;102717.41;5055100;28;45362;-64
2023/01/23 06:34:56;;;;;;;;;51.00;40.50;;;;;2.73;68.45;102705.59;5054560;28;45789;-64
2023/01/23 06:37:22;;;;;;;;;37.25;29.50;;;;;2.74;67.98;102712.75;5036836;28;45639;-63
2023/01/23 06:39:47;;;;;;;;;43.25;34.50;;;;;2.65;68.31;102714.28;5036393;28;45421;-64
2023/01/23 06:42:13;;;;;;;;;39.50;26.75;;;;;2.62;68.55;102715.34;5017864;27;46279;-64
2023/01/23 06:44:38;;;;;;;;;37.50;30.00;;;;;2.58;68.60;102711.16;5040186;28;45422;-64
2023/01/23 06:47:04;;;;;;;;;37.25;34.00;;;;;2.55;68.08;102697.78;5058238;28;45465;-65
2023/01/23 06:49:29;;;;;;;;;36.00;32.00;;;;;2.70;68.51;102714.81;5056768;28;45460;-62
2023/01/23 06:51:55;;;;;;;;;29.50;23.00;;;;;2.69;68.59;102713.97;5056221;28;45404;-64
2023/01/23 06:54:20;;;;;;;;;36.25;28.50;;;;;2.68;68.47;102716.78;5039785;28;45388;-64
2023/01/23 06:56:48;;;;;;;;;39.75;31.00;;;;;2.54;68.42;102683.41;5040043;28;45603;-65
2023/01/23 06:59:14;;;;;;;;;39.20;33.20;;;;;2.61;68.53;102702.78;5057306;28;46543;-64
2023/01/23 07:01:39;;;;;;;;;40.80;32.20;;;;;2.67;68.17;102709.63;5057587;28;45309;-62
2023/01/23 07:04:05;;;;;;;;;39.25;33.50;;;;;2.45;68.28;102673.19;5057734;28;45500;-64
2023/01/23 07:06:31;;;;;;;;;33.25;28.00;;;;;2.64;68.50;102689.00;5056777;28;45600;-62
2023/01/23 07:08:56;;;;;;;;;42.50;33.25;;;;;2.76;68.15;102714.38;5056360;28;46077;-63
2023/01/23 07:11:23;;;;;;;;;28.75;26.75;;;;;2.68;68.45;102703.22;5057359;28;45416;-63
2023/01/23 07:13:48;;;;;;;;;35.80;30.40;;;;;2.54;68.65;102696.94;5058108;28;45356;-63
2023/01/23 07:16:14;;;;;;;;;33.75;30.75;;;;;2.68;68.57;102705.94;5038812;28;45605;-63
2023/01/23 07:18:39;;;;;;;;;40.75;34.75;;;;;2.69;68.79;102702.22;5057562;28;45348;-64
2023/01/23 07:21:05;;;;;;;;;39.25;32.25;;;;;2.53;68.38;102680.78;5039300;28;45324;-65
2023/01/23 07:23:32;;;;;;;;;35.80;28.80;;;;;2.68;67.83;102704.06;5057696;28;45323;-65
2023/01/23 07:25:59;;;;;;;;;37.25;32.75;;;;;2.67;68.97;102706.91;5056589;28;45508;-64
2023/01/23 07:28:24;;;;;;;;;34.40;29.40;;;;;2.67;68.57;102706.91;5038826;28;47507;-64
2023/01/23 07:30:50;;;;;;;;;45.25;34.50;;;;;2.67;68.82;102705.06;5057528;28;45351;-64
2023/01/23 07:33:15;;;;;;;;;35.25;27.50;;;;;2.23;68.36;102653.06;5057335;28;45446;-64
2023/01/23 07:35:41;;;;;;;;;44.50;35.00;;;;;2.57;68.54;102712.13;5057305;28;45365;-63
2023/01/23 07:38:06;;;;;;;;;41.50;34.25;;;;;2.58;68.88;102713.88;5057272;28;45718;-64
2023/01/23 07:40:32;;;;;;;;;39.25;31.75;;;;;2.64;68.77;102718.84;5056981;28;45447;-66
2023/01/23 07:42:57;;;;;;;;;34.25;27.75;;;;;2.71;68.33;102721.97;5056219;28;45430;-64
2023/01/23 07:45:23;;;;;;;;;45.00;34.75;;;;;2.71;68.88;102719.25;5056822;28;45467;-64
2023/01/23 07:47:49;;;;;;;;;46.75;34.50;;;;;2.56;68.66;102688.72;5044211;28;47232;-63
2023/01/23 07:50:14;;;;;;;;;43.50;37.50;;;;;2.70;68.55;102712.97;5049619;28;45373;-63
2023/01/23 07:52:40;;;;;;;;;48.50;35.50;;;;;2.73;68.56;102725.44;5056120;28;45154;-65
2023/01/23 07:55:05;;;;;;;;;51.25;32.25;;;;;2.68;68.82;102714.91;5056500;28;45356;-63
2023/01/23 07:57:32;;;;;;;;;49.75;36.00;;;;;2.69;68.70;102723.94;5034542;28;45394;-64
2023/01/23 07:59:58;;;;;;;;;34.80;33.00;;;;;2.32;68.69;102658.78;5035749;28;45378;-64
2023/01/23 08:02:24;;;;;;;;;40.00;31.50;;;;;2.55;68.75;102703.22;5052801;28;45673;-64
2023/01/23 08:04:49;;;;;;;;;49.50;40.50;;;;;2.70;68.59;102722.94;5056980;28;45514;-64
2023/01/23 08:07:15;;;;;;;;;53.75;40.00;;;;;2.74;68.78;102719.03;5056721;28;46147;-63
2023/01/23 08:09:41;;;;;;;;;39.25;28.75;;;;;2.77;68.48;102717.97;5055509;28;46004;-64
2023/01/23 08:12:06;;;;;;;;;49.00;39.00;;;;;2.82;68.38;102719.34;5055702;28;45521;-64
2023/01/23 08:14:32;;;;;;;;;46.00;37.00;;;;;2.88;68.31;102728.88;5055449;28;45421;-63
2023/01/23 08:16:58;;;;;;;;;45.25;28.75;;;;;2.79;68.08;102710.56;5055491;28;45495;-64
2023/01/23 08:19:26;;;;;;;;;43.25;37.00;;;;;2.94;68.33;102725.72;5055046;28;45606;-66
2023/01/23 08:21:52;;;;;;;;;49.80;35.00;;;;;2.99;68.28;102730.81;5038588;28;45269;-64
2023/01/23 08:24:18;;;;;;;;;50.00;39.75;;;;;3.02;67.91;102727.88;5039011;28;45575;-64
2023/01/23 08:26:43;;;;;;;;;47.50;39.25;;;;;3.05;68.34;102733.06;5056195;28;46251;-64
2023/01/23 08:29:09;;;;;;;;;48.50;35.50;;;;;2.99;67.81;102719.97;5056520;28;45459;-65
2023/01/23 08:31:35;;;;;;;;;40.60;31.60;;;;;2.97;67.73;102711.06;5038372;28;45476;-70
2023/01/23 08:34:01;;;;;;;;;51.25;42.00;;;;;3.05;67.93;102727.63;5022065;28;45399;-64
2023/01/23 08:36:26;;;;;;;;;41.50;33.75;;;;;2.93;67.82;102698.72;5056415;28;46102;-62
2023/01/23 08:38:52;;;;;;;;;37.25;32.50;;;;;3.00;67.91;102712.69;5055870;28;45417;-62
2023/01/23 08:41:18;;;;;;;;;38.00;29.00;;;;;3.05;67.38;102719.50;5038357;28;45431;-62
2023/01/23 08:43:43;;;;;;;;;48.75;35.75;;;;;2.99;67.50;102717.25;5055325;28;45595;-62
2023/01/23 08:46:09;;;;;;;;;43.00;37.50;;;;;3.03;67.77;102726.03;5055922;28;45510;-62
2023/01/23 08:48:35;;;;;;;;;46.50;32.00;;;;;3.08;67.80;102730.13;5056035;28;45263;-63
2023/01/23 08:51:04;;;;;;;;;47.00;41.00;;;;;2.90;67.77;102697.09;5036758;28;45400;-63
2023/01/23 08:53:30;;;;;;;;;45.20;40.20;;;;;2.99;67.81;102733.53;5056044;28;45645;-61
2023/01/23 08:56:03;;;;;;;;;40.75;35.00;;;;;3.03;68.37;102726.03;5037817;28;46632;-63
2023/01/23 08:58:28;;;;;;;;;48.00;39.60;;;;;3.08;68.94;102731.97;5056059;28;45391;-62
2023/01/23 09:00:54;;;;;;;;;39.00;32.00;;;;;3.15;69.09;102713.41;5037821;28;45501;-62
2023/01/23 09:03:19;;;;;;;;;48.50;35.00;;;;;3.22;68.39;102711.94;5055846;28;45631;-63
2023/01/23 09:05:45;;;;;;;;;49.50;40.00;;;;;3.23;67.89;102714.56;5055687;28;45547;-62
2023/01/23 09:08:11;;;;;;;;;48.75;40.50;;;;;3.22;68.12;102720.97;5055494;28;45423;-60
2023/01/23 09:10:39;;;;;;;;;45.50;35.50;;;;;3.15;67.49;102722.38;4992533;28;45586;-62
2023/01/23 09:13:04;;;;;;;;;45.80;33.40;;;;;3.08;67.56;102724.69;5050489;28;45346;-63
2023/01/23 09:15:30;;;;;;;;;42.00;35.50;;;;;2.95;67.48;102707.59;5032603;28;45619;-65
2023/01/23 09:17:56;;;;;;;;;38.25;31.50;;;;;3.04;68.51;102719.63;5048545;28;45738;-65
2023/01/23 09:20:21;;;;;;;;;56.25;42.25;;;;;2.99;67.96;102703.69;5049859;28;45667;-64
2023/01/23 09:22:47;;;;;;;;;45.00;38.75;;;;;3.21;67.83;102732.78;5051250;28;45479;-62
2023/01/23 09:25:13;;;;;;;;;33.75;31.50;;;;;2.97;67.99;102683.94;5051212;28;45699;-64
2023/01/23 09:27:39;;;;;;;;;39.50;33.00;;;;;3.27;67.00;102736.03;5033275;28;45881;-63
2023/01/23 09:30:05;;;;;;;;;36.80;29.80;;;;;3.26;67.98;102729.75;5050988;28;45861;-64
2023/01/23 09:32:31;;;;;;;;;23.25;21.50;;;;;3.24;67.25;102734.41;5050963;28;45501;-64
2023/01/23 09:34:56;;;;;;;;;34.25;30.50;;;;;3.20;67.38;102739.19;5049424;28;45463;-65
2023/01/23 09:37:22;;;;;;;;;35.50;33.75;;;;;2.82;67.10;102678.66;5050820;28;45393;-66
2023/01/23 09:39:47;;;;;;;;;31.75;27.25;;;;;3.23;67.77;102751.69;5032968;28;45478;-64
2023/01/23 09:42:20;;;;;;;;;48.75;35.25;;;;;3.26;67.92;102762.31;5031523;28;45416;-65
2023/01/23 09:44:58;;;;;;;;;35.00;29.80;;;;;3.27;68.56;102760.47;5032626;28;46403;-65
2023/01/23 09:47:27;;;;;;;;;40.60;35.60;;;;;3.32;67.51;102771.84;5045692;28;45614;-67
2023/01/23 09:49:59;;;;;;;;;42.20;36.00;;;;;3.37;67.54;102780.53;5016449;28;45417;-64
2023/01/23 09:52:37;;;;;;;;;51.50;35.50;;;;;3.40;67.38;102780.28;5023395;28;45496;-62
2023/01/23 09:55:40;;;;;;;;;39.20;33.40;;;;;3.33;67.87;102774.47;5032306;28;45838;-64
2023/01/23 09:58:08;;;;;;;;;50.80;37.20;;;;;3.27;66.95;102760.47;5050720;28;45455;-64
2023/01/23 10:00:35;;;;;;;;;53.80;40.80;;;;;3.08;67.21;102738.28;5032746;28;45400;-64
2023/01/23 10:03:02;;;;;;;;;47.25;38.75;;;;;3.32;67.21;102777.28;5032552;28;45930;-67
2023/01/23 10:05:40;;;;;;;;;48.80;40.80;;;;;3.39;67.21;102783.97;5029651;28;47216;-63
2023/01/23 10:08:17;;;;;;;;;43.40;31.00;;;;;3.41;68.08;102786.59;5033418;28;45509;-63
2023/01/23 10:11:07;;;;;;;;;49.60;37.40;;;;;3.39;66.80;102776.72;5019935;27;45342;-61
2023/01/23 10:13:40;;;;;;;;;41.75;34.75;;;;;3.33;67.26;102774.47;5010953;28;46033;-65
2023/01/23 10:16:23;;;;;;;;;43.80;39.20;;;;;3.33;67.61;102788.03;5030610;28;45519;-62
2023/01/23 10:18:58;;;;;;;;;44.20;37.60;;;;;3.37;67.65;102781.38;5019172;28;45895;-65
2023/01/23 10:21:46;;;;;;;;;45.40;28.60;;;;;3.39;67.68;102795.72;5037176;28;45463;-63
2023/01/23 10:24:33;;;;;;;;;42.60;34.60;;;;;3.21;67.06;102757.22;5035687;28;45735;-65
2023/01/23 10:27:14;;;;;;;;;54.50;38.25;;;;;3.41;67.13;102786.59;5018725;28;47184;-66
2023/01/23 10:29:42;;;;;;;;;40.40;33.40;;;;;3.46;67.38;102787.13;5035776;28;45461;-60
2023/01/23 10:32:23;;;;;;;;;44.00;33.20;;;;;3.47;67.70;102800.56;5019565;28;45430;-66
2023/01/23 10:35:37;;;;;;;;;45.75;37.25;;;;;3.51;68.07;102793.06;5019417;28;45564;-65
2023/01/23 10:38:38;;;;;;;;;36.20;30.00;;;;;3.47;67.11;102786.97;5024123;28;47023;-65
2023/01/23 10:41:13;;;;;;;;;44.20;36.80;;;;;3.46;67.29;102796.13;5035960;28;45454;-64
2023/01/23 10:43:44;;;;;;;;;37.20;27.00;;;;;3.40;67.01;102796.56;5019043;28;45432;-65
2023/01/23 10:46:11;;;;;;;;;45.00;36.00;;;;;3.45;67.73;102790.78;5004049;28;45983;-65
2023/01/23 10:48:50;;;;;;;;;43.60;38.00;;;;;3.48;67.53;102788.72;5019702;28;46796;-65
2023/01/23 10:54:43;;;;;;;;;42.80;33.40;;;;;3.34;66.99;102776.19;4993381;28;45944;-66
2023/01/23 10:57:09;;;;;;;;;34.80;27.60;;;;;3.00;67.15;102718.09;4995053;28;45748;-66
2023/01/23 10:59:52;;;;;;;;;45.50;33.00;;;;;3.10;67.10;102741.72;5031621;28;46078;-66
2023/01/23 11:02:25;;;;;;;;;41.20;33.60;;;;;3.22;66.92;102760.81;5032063;28;45473;-66
2023/01/23 11:04:51;;;;;;;;;44.60;33.60;;;;;3.27;67.31;102777.63;5034439;28;45414;-65
2023/01/23 11:07:21;;;;;;;;;33.50;30.00;;;;;3.21;67.31;102764.50;5017320;28;45435;-67
2023/01/23 11:09:52;;;;;;;;;37.00;31.00;;;;;3.17;67.62;102722.28;5016317;28;45558;-66
2023/01/23 11:12:19;;;;;;;;;33.80;29.60;;;;;3.50;66.56;102777.75;5025924;28;45757;-65
2023/01/23 11:14:45;;;;;;;;;35.80;31.60;;;;;3.54;66.76;102757.53;5016717;28;45530;-65
2023/01/23 11:17:21;;;;;;;;;40.25;32.75;;;;;3.44;66.57;102738.34;5030401;28;45982;-64
2023/01/23 11:19:48;;;;;;;;;39.80;31.20;;;;;3.58;66.54;102771.75;5034017;28;46749;-64
2023/01/23 11:22:31;;;;;;;;;32.60;29.80;;;;;3.56;66.63;102747.41;5033422;28;45894;-66
2023/01/23 11:24:57;;;;;;;;;42.20;33.00;;;;;3.65;66.33;102754.88;5046791;28;45517;-66
2023/01/23 11:27:28;;;;;;;;;33.25;31.25;;;;;3.41;65.05;102724.16;5018276;28;45334;-65